Finlandia — OJPP — position and weather

sailwx.info

Track history (hours):
 
Tides and Currents Weather Stations Pressure Air Temp Water Temp Dewpoint Dewpoint Depression Visibility Wind Speed Wind Dir Waves Ship Positions

Finlandia

Last reported at 2016-Jun-28 11:23 UTC. Time now 2016-Jun-28 13:23 UTC.
Position N 60°09' E 024°55'.

Length 175 m; draft 7 m.

Type: Passenger vessel. MMSI: 230628000.

Date/timePositionNaut miles runAvg speedWind from/ knotsBaromVisibWave heightAir tempDewpointWater temp
2016-Jun-28 11:23N 60°09' E 024°55'1617.7
2016-Jun-28 10:28N 59°53' E 024°53'2123.3
2016-Jun-28 09:34N 59°32' E 024°44'6 5.7
2016-Jun-28 08:33N 59°27' E 024°46'4 4.2
2016-Jun-28 07:33N 59°31' E 024°44'2420.9
2016-Jun-28 06:25N 59°54' E 024°52'15 4.6
2016-Jun-28 03:10N 60°09' E 024°55'30 2.8
2016-Jun-27 16:33N 59°40' E 024°41'1413.9
2016-Jun-27 15:33N 59°27' E 024°46'0 0.4
2016-Jun-27 14:33N 59°27' E 024°47'22 5.1
2016-Jun-27 10:11N 59°49' E 024°47'1421.1
2016-Jun-27 09:33N 59°36' E 024°41'10 9.8
2016-Jun-27 08:33N 59°27' E 024°46'3 3.5
2016-Jun-27 07:33N 59°30' E 024°44'12 0.8
2016-Jun-26 16:34N 59°42' E 024°41'1615.8
2016-Jun-26 15:33N 59°27' E 024°46'0 0.1
2016-Jun-26 14:33N 59°27' E 024°46'2120.8
2016-Jun-26 13:33N 59°48' E 024°49'0 0.1
2016-Jun-26 10:05N 59°48' E 024°50'1120.3
2016-Jun-26 09:33N 59°38' E 024°42'1111.3
2016-Jun-26 08:33N 59°27' E 024°46'2 2.3
2016-Jun-26 07:33N 59°29' E 024°45'2219.3
2016-Jun-26 06:26N 59°50' E 024°51'10 0.7
2016-Jun-25 16:33N 59°41' E 024°45'1414.1
2016-Jun-25 15:33N 59°27' E 024°46'0 0.3
2016-Jun-25 14:33N 59°27' E 024°46'2020.2
2016-Jun-25 13:33N 59°47' E 024°49'10 2.4
2016-Jun-25 09:33N 59°38' E 024°42'1111.2
2016-Jun-25 08:33N 59°27' E 024°46'4 3.8
2016-Jun-25 07:33N 59°30' E 024°44'12 0.8
2016-Jun-24 16:33N 59°42' E 024°46'1515.5
2016-Jun-24 15:33N 59°27' E 024°46'0 0.3
2016-Jun-24 14:33N 59°27' E 024°46'11 2.3
2016-Jun-24 09:34N 59°38' E 024°42'1111.4
2016-Jun-24 08:33N 59°27' E 024°46'3 3.0
2016-Jun-24 07:34N 59°30' E 024°45'1919.3
2016-Jun-24 06:33N 59°49' E 024°47'20 6.3
2016-Jun-24 03:28N 60°08' E 024°54'13 6.2
2016-Jun-24 01:21N 59°55' E 024°51'1 0.9
2016-Jun-24 00:32N 59°54' E 024°51'1414.3
2016-Jun-23 23:33N 59°41' E 024°45'1313.4
2016-Jun-23 22:34N 59°27' E 024°47'1 0.8
2016-Jun-23 21:33N 59°27' E 024°46'1717.5
2016-Jun-23 20:33N 59°44' E 024°42'2320.3
2016-Jun-23 19:26N 60°06' E 024°54'29 9.2
2016-Jun-23 16:16N 59°38' E 024°42'1116.0
2016-Jun-23 15:34N 59°27' E 024°46'0 0.1
2016-Jun-23 14:33N 59°27' E 024°46'2020.3
2016-Jun-23 13:34N 59°47' E 024°49'9 2.3
2016-Jun-23 09:33N 59°38' E 024°43'1211.8
2016-Jun-23 08:33N 59°27' E 024°46'2 2.2
2016-Jun-23 07:34N 59°29' E 024°45'28 5.5
2016-Jun-23 02:31N 59°56' E 024°51'1 1.3
2016-Jun-23 01:33N 59°55' E 024°50'8 7.3
2016-Jun-23 00:25N 59°47' E 024°48'1112.7
2016-Jun-22 23:33N 59°36' E 024°41'1010.0
2016-Jun-22 22:33N 59°27' E 024°46'0 0.2
2016-Jun-22 21:33N 59°27' E 024°46'2119.6
2016-Jun-22 20:28N 59°48' E 024°49'14 4.7
2016-Jun-22 17:31N 60°02' E 024°54'2021.2
2016-Jun-22 16:33N 59°42' E 024°42'1615.8
2016-Jun-22 15:33N 59°27' E 024°46'0 0.4
2016-Jun-22 14:33N 59°27' E 024°46'11 2.2
2016-Jun-22 09:33N 59°38' E 024°42'1111.0
2016-Jun-22 08:33N 59°27' E 024°46'4 4.2
2016-Jun-22 07:33N 59°31' E 024°44'15 2.1
2016-Jun-22 00:11N 59°46' E 024°48'1015.7
2016-Jun-21 23:33N 59°37' E 024°41'1010.1
2016-Jun-21 22:33N 59°27' E 024°46'0 0.4
2016-Jun-21 21:33N 59°27' E 024°46'2121.4
2016-Jun-21 20:34N 59°48' E 024°46'2120.8
2016-Jun-21 19:33N 60°09' E 024°55'1 0.6
2016-Jun-21 18:31N 60°09' E 024°55'8 8.1
2016-Jun-21 17:33N 60°01' E 024°55'2121.5
2016-Jun-21 16:33N 59°41' E 024°45'1413.9
2016-Jun-21 15:34N 59°27' E 024°46'1 1.0
2016-Jun-21 14:34N 59°28' E 024°47'2424.1
2016-Jun-21 13:33N 59°52' E 024°51'15 6.2
2016-Jun-21 11:03N 60°07' E 024°54'1122.0
2016-Jun-21 10:32N 59°56' E 024°53'2222.5
2016-Jun-21 09:33N 59°35' E 024°42'8 8.2
2016-Jun-21 08:33N 59°27' E 024°46'3 3.3
2016-Jun-21 07:34N 59°30' E 024°45'2019.6
2016-Jun-21 06:33N 59°49' E 024°50'12 0.8
2016-Jun-20 16:34N 59°38' E 024°42'1211.7
2016-Jun-20 15:33N 59°27' E 024°46'1 0.9
2016-Jun-20 14:33N 59°27' E 024°47'8 1.7
2016-Jun-20 09:33N 59°35' E 024°42'6 3.0
2016-Jun-20 07:33N 59°30' E 024°45'11 0.8
2016-Jun-19 16:33N 59°41' E 024°46'14 7.0
2016-Jun-19 14:32N 59°27' E 024°46'7 1.3
2016-Jun-19 09:33N 59°33' E 024°43'2 1.1
2016-Jun-19 07:31N 59°31' E 024°44'8 0.5
2016-Jun-18 16:33N 59°39' E 024°43'1211.4
2016-Jun-18 15:29N 59°27' E 024°46'4 4.1
2016-Jun-18 14:33N 59°30' E 024°44'  
Track history (hours):
 
Tides and Currents Weather Stations Pressure Air Temp Water Temp Dewpoint Dewpoint Depression Visibility Wind Speed Wind Dir Waves Ship Positions

Finlandia

Last reported at 2016-Jun-28 11:23 UTC. Time now 2016-Jun-28 13:23 UTC.
Position N 60°09' E 024°55'.

Length 175 m; draft 7 m.

Type: Passenger vessel. MMSI: 230628000.

Date/timePositionNaut miles runAvg speedWind from/ knotsBaromVisibWave heightAir tempDewpointWater temp
2016-Jun-28 11:23N 60°09' E 024°55'1617.7
2016-Jun-28 10:28N 59°53' E 024°53'2123.3
2016-Jun-28 09:34N 59°32' E 024°44'6 5.7
2016-Jun-28 08:33N 59°27' E 024°46'4 4.2
2016-Jun-28 07:33N 59°31' E 024°44'2420.9
2016-Jun-28 06:25N 59°54' E 024°52'15 4.6
2016-Jun-28 03:10N 60°09' E 024°55'30 2.8
2016-Jun-27 16:33N 59°40' E 024°41'1413.9
2016-Jun-27 15:33N 59°27' E 024°46'0 0.4
2016-Jun-27 14:33N 59°27' E 024°47'22 5.1
2016-Jun-27 10:11N 59°49' E 024°47'1421.1
2016-Jun-27 09:33N 59°36' E 024°41'10 9.8
2016-Jun-27 08:33N 59°27' E 024°46'3 3.5
2016-Jun-27 07:33N 59°30' E 024°44'12 0.8
2016-Jun-26 16:34N 59°42' E 024°41'1615.8
2016-Jun-26 15:33N 59°27' E 024°46'0 0.1
2016-Jun-26 14:33N 59°27' E 024°46'2120.8
2016-Jun-26 13:33N 59°48' E 024°49'0 0.1
2016-Jun-26 10:05N 59°48' E 024°50'1120.3
2016-Jun-26 09:33N 59°38' E 024°42'1111.3
2016-Jun-26 08:33N 59°27' E 024°46'2 2.3
2016-Jun-26 07:33N 59°29' E 024°45'2219.3
2016-Jun-26 06:26N 59°50' E 024°51'10 0.7
2016-Jun-25 16:33N 59°41' E 024°45'1414.1
2016-Jun-25 15:33N 59°27' E 024°46'0 0.3
2016-Jun-25 14:33N 59°27' E 024°46'2020.2
2016-Jun-25 13:33N 59°47' E 024°49'10 2.4
2016-Jun-25 09:33N 59°38' E 024°42'1111.2
2016-Jun-25 08:33N 59°27' E 024°46'4 3.8
2016-Jun-25 07:33N 59°30' E 024°44'12 0.8
2016-Jun-24 16:33N 59°42' E 024°46'1515.5
2016-Jun-24 15:33N 59°27' E 024°46'0 0.3
2016-Jun-24 14:33N 59°27' E 024°46'11 2.3
2016-Jun-24 09:34N 59°38' E 024°42'1111.4
2016-Jun-24 08:33N 59°27' E 024°46'3 3.0
2016-Jun-24 07:34N 59°30' E 024°45'1919.3
2016-Jun-24 06:33N 59°49' E 024°47'20 6.3
2016-Jun-24 03:28N 60°08' E 024°54'13 6.2
2016-Jun-24 01:21N 59°55' E 024°51'1 0.9
2016-Jun-24 00:32N 59°54' E 024°51'1414.3
2016-Jun-23 23:33N 59°41' E 024°45'1313.4
2016-Jun-23 22:34N 59°27' E 024°47'1 0.8
2016-Jun-23 21:33N 59°27' E 024°46'1717.5
2016-Jun-23 20:33N 59°44' E 024°42'2320.3
2016-Jun-23 19:26N 60°06' E 024°54'29 9.2
2016-Jun-23 16:16N 59°38' E 024°42'1116.0
2016-Jun-23 15:34N 59°27' E 024°46'0 0.1
2016-Jun-23 14:33N 59°27' E 024°46'2020.3
2016-Jun-23 13:34N 59°47' E 024°49'9 2.3
2016-Jun-23 09:33N 59°38' E 024°43'1211.8
2016-Jun-23 08:33N 59°27' E 024°46'2 2.2
2016-Jun-23 07:34N 59°29' E 024°45'28 5.5
2016-Jun-23 02:31N 59°56' E 024°51'1 1.3
2016-Jun-23 01:33N 59°55' E 024°50'8 7.3
2016-Jun-23 00:25N 59°47' E 024°48'1112.7
2016-Jun-22 23:33N 59°36' E 024°41'1010.0
2016-Jun-22 22:33N 59°27' E 024°46'0 0.2
2016-Jun-22 21:33N 59°27' E 024°46'2119.6
2016-Jun-22 20:28N 59°48' E 024°49'14 4.7
2016-Jun-22 17:31N 60°02' E 024°54'2021.2
2016-Jun-22 16:33N 59°42' E 024°42'1615.8
2016-Jun-22 15:33N 59°27' E 024°46'0 0.4
2016-Jun-22 14:33N 59°27' E 024°46'11 2.2
2016-Jun-22 09:33N 59°38' E 024°42'1111.0
2016-Jun-22 08:33N 59°27' E 024°46'4 4.2
2016-Jun-22 07:33N 59°31' E 024°44'15 2.1
2016-Jun-22 00:11N 59°46' E 024°48'1015.7
2016-Jun-21 23:33N 59°37' E 024°41'1010.1
2016-Jun-21 22:33N 59°27' E 024°46'0 0.4
2016-Jun-21 21:33N 59°27' E 024°46'2121.4
2016-Jun-21 20:34N 59°48' E 024°46'2120.8
2016-Jun-21 19:33N 60°09' E 024°55'1 0.6
2016-Jun-21 18:31N 60°09' E 024°55'8 8.1
2016-Jun-21 17:33N 60°01' E 024°55'2121.5
2016-Jun-21 16:33N 59°41' E 024°45'1413.9
2016-Jun-21 15:34N 59°27' E 024°46'1 1.0
2016-Jun-21 14:34N 59°28' E 024°47'2424.1
2016-Jun-21 13:33N 59°52' E 024°51'15 6.2
2016-Jun-21 11:03N 60°07' E 024°54'1122.0
2016-Jun-21 10:32N 59°56' E 024°53'2222.5
2016-Jun-21 09:33N 59°35' E 024°42'8 8.2
2016-Jun-21 08:33N 59°27' E 024°46'3 3.3
2016-Jun-21 07:34N 59°30' E 024°45'2019.6
2016-Jun-21 06:33N 59°49' E 024°50'12 0.8
2016-Jun-20 16:34N 59°38' E 024°42'1211.7
2016-Jun-20 15:33N 59°27' E 024°46'1 0.9
2016-Jun-20 14:33N 59°27' E 024°47'8 1.7
2016-Jun-20 09:33N 59°35' E 024°42'6 3.0
2016-Jun-20 07:33N 59°30' E 024°45'11 0.8
2016-Jun-19 16:33N 59°41' E 024°46'14 7.0
2016-Jun-19 14:32N 59°27' E 024°46'7 1.3
2016-Jun-19 09:33N 59°33' E 024°43'2 1.1
2016-Jun-19 07:31N 59°31' E 024°44'8 0.5
2016-Jun-18 16:33N 59°39' E 024°43'1211.4
2016-Jun-18 15:29N 59°27' E 024°46'4 4.1
2016-Jun-18 14:33N 59°30' E 024°44'  

Dump ship's entire track history